Time;durP1;ratioP1;P1;durP2;ratioP2;P2;SDS_P1;SDS_P2;PMS_P1;PMS_P2;Temp;Humidity;BMP_temperature;BMP_pressure;BME280_temperature;BME280_humidity;BME280_pressure;Samples;Min_cycle;Max_cycle;Signal;HPM_P1;HPM_P2
2022/01/08 00:02:07;;;;;;;20.35;13.18;;;;;;;6.05;91.61;101184.72;10412712;28;20041;-70
2022/01/08 00:07:07;;;;;;;20.50;12.88;;;;;;;6.08;91.80;101188.94;10412170;28;20107;-70
2022/01/08 00:12:09;;;;;;;19.77;11.88;;;;;;;6.27;91.49;101215.56;10412295;28;20099;-69
2022/01/08 00:17:09;;;;;;;19.02;12.73;;;;;;;6.21;91.41;101220.47;10419629;28;20052;-70
2022/01/08 00:22:11;;;;;;;17.90;11.95;;;;;;;5.30;91.18;101082.34;10420128;28;20038;-70
2022/01/08 00:27:12;;;;;;;22.95;12.90;;;;;;;6.19;91.77;101239.06;10419718;28;20068;-70
2022/01/08 00:32:14;;;;;;;20.77;11.48;;;;;;;6.03;91.67;101234.13;10418994;28;20076;-70
2022/01/08 00:37:15;;;;;;;28.27;16.70;;;;;;;5.29;91.64;101106.16;10419594;28;20120;-70
2022/01/08 00:42:16;;;;;;;49.92;26.55;;;;;;;5.84;91.31;101204.81;10418536;28;20140;-69
2022/01/08 00:47:17;;;;;;;40.30;20.58;;;;;;;5.15;91.16;101089.59;10419108;28;20038;-70
2022/01/08 00:52:18;;;;;;;72.93;34.08;;;;;;;6.04;90.71;101241.09;10419266;28;20092;-69
2022/01/08 00:57:19;;;;;;;22.90;12.75;;;;;;;5.26;90.55;101149.38;10418636;28;20421;-69
2022/01/08 01:02:20;;;;;;;23.60;12.77;;;;;;;5.11;89.56;101121.53;10417949;28;20046;-69
2022/01/08 01:07:21;;;;;;;22.08;13.07;;;;;;;5.69;89.00;101246.34;10419108;28;20120;-69
2022/01/08 01:12:21;;;;;;;20.73;12.43;;;;;;;5.78;87.68;101285.22;10418507;28;20047;-69
2022/01/08 01:17:22;;;;;;;20.80;13.35;;;;;;;5.48;86.82;101270.69;10418064;28;20041;-69
2022/01/08 01:22:28;;;;;;;26.33;13.50;;;;;;;5.56;85.88;101282.44;10418202;28;20474;-69
2022/01/08 01:47:00;;;;;;;21.30;12.98;;;;;;;5.33;84.11;101273.63;10416254;28;20055;-70
2022/01/08 01:48:48;;;;;;;20.02;13.00;;;;;;;4.91;84.21;101216.03;10416005;28;20543;-70
2022/01/08 01:53:50;;;;;;;20.65;12.20;;;;;;;4.85;84.06;101224.34;10415793;28;20148;-69
2022/01/08 01:58:51;;;;;;;17.50;11.95;;;;;;;5.22;84.22;101296.28;10416877;28;20076;-70
2022/01/08 02:03:53;;;;;;;24.40;12.32;;;;;;;5.31;84.11;101323.78;10417269;28;20116;-69
2022/01/08 02:08:54;;;;;;;18.00;12.50;;;;;;;5.31;83.90;101320.28;10415907;28;20043;-69
2022/01/08 02:14:04;;;;;;;20.65;11.88;;;;;;;5.49;82.48;101361.97;10415230;28;20043;-69
2022/01/08 02:19:05;;;;;;;17.92;11.48;;;;;;;4.76;83.55;101246.06;10415561;28;20445;-69
2022/01/08 02:24:06;;;;;;;27.08;12.32;;;;;;;5.42;83.55;101355.47;10433361;28;20052;-70
2022/01/08 02:29:10;;;;;;;16.55;11.57;;;;;;;5.38;82.99;101358.41;10455125;28;20401;-69
2022/01/08 02:34:11;;;;;;;24.33;12.00;;;;;;;5.54;83.91;101389.81;10455967;28;20044;-69
2022/01/08 02:39:12;;;;;;;21.60;12.75;;;;;;;5.58;83.52;101386.81;10453886;28;20516;-70
2022/01/08 02:44:13;;;;;;;16.73;11.98;;;;;;;5.54;83.48;101390.66;10455695;28;20044;-70
2022/01/08 02:49:14;;;;;;;20.13;12.07;;;;;;;5.33;83.53;101381.63;10455856;28;20089;-69
2022/01/08 02:54:15;;;;;;;19.73;12.30;;;;;;;5.52;83.44;101404.88;10455480;28;20060;-69
2022/01/08 02:59:17;;;;;;;20.30;12.18;;;;;;;5.51;84.15;101417.22;10455585;28;20455;-69
2022/01/08 03:04:18;;;;;;;20.90;13.55;;;;;;;5.45;84.03;101418.50;10455739;28;20052;-70
2022/01/08 03:09:19;;;;;;;23.13;13.35;;;;;;;5.44;83.97;101422.09;10454941;28;20041;-69
2022/01/08 03:14:20;;;;;;;20.48;12.52;;;;;;;5.44;84.21;101422.09;10455391;28;20056;-69
2022/01/08 03:19:22;;;;;;;16.58;11.88;;;;;;;5.23;84.13;101408.63;10454756;28;20040;-69
2022/01/08 03:24:28;;;;;;;22.02;12.15;;;;;;;5.48;83.67;101446.44;10455185;28;20041;-69
2022/01/08 03:29:29;;;;;;;15.65;11.80;;;;;;;5.40;83.64;101439.06;10453811;28;20045;-70
2022/01/08 03:34:30;;;;;;;22.40;12.90;;;;;;;5.41;83.48;101458.34;10453936;28;20049;-69
2022/01/08 03:39:30;;;;;;;22.85;13.07;;;;;;;4.95;84.10;101386.00;10452860;28;20075;-69
2022/01/08 03:44:32;;;;;;;18.33;11.40;;;;;;;5.16;84.12;101448.66;10453568;28;20052;-69
2022/01/08 03:49:33;;;;;;;22.73;11.85;;;;;;;5.08;84.51;101457.06;10458688;28;20075;-70
2022/01/08 03:54:34;;;;;;;16.48;11.70;;;;;;;5.20;84.56;101481.75;10462042;28;20114;-69
2022/01/08 03:59:35;;;;;;;23.20;12.15;;;;;;;5.22;84.57;101475.41;10461685;28;20041;-69
2022/01/08 04:04:36;;;;;;;19.70;11.60;;;;;;;4.46;84.64;101378.81;10461525;28;20063;-69
2022/01/08 04:09:37;;;;;;;21.25;11.30;;;;;;;4.61;84.54;101405.88;10458372;28;20036;-69
2022/01/08 04:14:52;;;;;;;20.73;12.13;;;;;;;4.20;84.50;101321.84;10459141;28;20048;-70
2022/01/08 04:19:53;;;;;;;16.67;11.13;;;;;;;4.86;85.10;101434.00;10454727;28;20064;-70
2022/01/08 04:24:56;;;;;;;30.02;11.88;;;;;;;4.44;84.92;101391.22;10456533;28;20043;-69
2022/01/08 04:29:57;;;;;;;25.70;11.13;;;;;;;5.13;85.33;101493.66;10458081;28;20554;-69
2022/01/08 04:34:57;;;;;;;20.17;11.13;;;;;;;5.07;84.40;101505.44;10458989;28;20124;-70
2022/01/08 04:39:58;;;;;;;15.65;10.27;;;;;;;4.11;83.72;101362.75;10455561;28;20063;-69
2022/01/08 04:44:59;;;;;;;20.13;10.52;;;;;;;4.73;84.87;101510.34;10444714;28;20053;-69
2022/01/08 04:50:00;;;;;;;14.50;9.20;;;;;;;4.64;84.39;101510.13;10449659;28;20033;-69
2022/01/08 04:55:01;;;;;;;15.48;9.18;;;;;;;4.41;83.52;101483.50;10417500;28;20063;-70
2022/01/08 05:00:04;;;;;;;13.05;8.00;;;;;;;4.66;82.46;101545.91;10418100;28;20511;-69
2022/01/08 05:05:05;;;;;;;11.02;7.68;;;;;;;4.23;82.47;101476.81;10423988;28;20083;-69
2022/01/08 05:10:07;;;;;;;13.27;7.82;;;;;;;4.50;82.32;101540.78;10431506;28;20408;-69
2022/01/08 05:15:08;;;;;;;11.18;7.82;;;;;;;4.55;81.42;101561.56;10430570;28;20441;-68
2022/01/08 05:20:12;;;;;;;12.55;7.03;;;;;;;3.49;80.45;101400.00;10421512;28;20186;-69
2022/01/08 05:25:18;;;;;;;10.27;6.85;;;;;;;4.36;79.93;101546.09;10458570;28;20059;-70
2022/01/08 05:30:21;;;;;;;10.80;6.28;;;;;;;2.97;79.49;101319.25;10458354;28;20117;-69
2022/01/08 05:35:23;;;;;;;10.52;6.65;;;;;;;4.38;79.92;101573.16;10417028;28;20045;-69
2022/01/08 05:40:24;;;;;;;15.60;7.25;;;;;;;4.35;79.36;101574.19;10418177;28;20041;-70
2022/01/08 05:45:25;;;;;;;10.23;6.68;;;;;;;3.55;79.21;101436.41;10428862;28;20060;-70
2022/01/08 05:50:26;;;;;;;10.93;7.13;;;;;;;4.16;79.30;101517.59;10457010;28;20500;-70
2022/01/08 05:55:27;;;;;;;11.45;6.63;;;;;;;4.43;79.64;101564.97;10457413;28;20044;-68
2022/01/08 06:00:28;;;;;;;14.20;6.93;;;;;;;3.77;78.67;101445.56;10456915;28;20047;-68
2022/01/08 06:05:29;;;;;;;12.82;6.75;;;;;;;3.69;78.43;101437.34;10448537;28;20084;-69
2022/01/08 06:10:30;;;;;;;12.63;7.30;;;;;;;3.42;78.95;101430.25;10451312;28;20581;-69
2022/01/08 06:15:30;;;;;;;8.10;6.10;;;;;;;4.17;79.47;101561.38;10458075;28;20060;-69
2022/01/08 06:20:31;;;;;;;10.18;6.75;;;;;;;4.11;80.35;101563.44;10454509;28;20037;-69
2022/01/08 06:25:32;;;;;;;14.95;7.50;;;;;;;4.21;80.17;101568.13;10456431;28;20171;-69
2022/01/08 06:30:33;;;;;;;11.88;7.22;;;;;;;4.26;80.22;101550.28;10428757;28;20049;-70
2022/01/08 06:35:34;;;;;;;10.75;6.90;;;;;;;4.13;80.34;101550.22;10432632;28;20049;-69
2022/01/08 06:40:35;;;;;;;33.38;15.52;;;;;;;3.62;80.12;101478.91;10452138;28;20033;-69
2022/01/08 06:45:36;;;;;;;12.60;8.57;;;;;;;3.57;80.42;101462.59;10437780;28;20044;-68
2022/01/08 06:50:37;;;;;;;11.32;7.18;;;;;;;3.72;79.40;101482.66;10450474;28;20052;-69
2022/01/08 06:55:38;;;;;;;13.27;6.57;;;;;;;4.32;79.71;101603.31;10449444;28;20045;-69
2022/01/08 07:00:39;;;;;;;10.32;4.68;;;;;;;4.25;79.53;101601.19;10450562;28;20048;-69
2022/01/08 07:05:40;;;;;;;11.43;6.80;;;;;;;4.17;80.02;101585.03;10451077;28;20049;-69
2022/01/08 07:10:41;;;;;;;11.60;7.60;;;;;;;4.26;80.80;101605.50;10436381;28;20037;-68
2022/01/08 07:15:42;;;;;;;12.35;7.68;;;;;;;4.08;80.57;101553.13;10436994;28;20052;-68
2022/01/08 07:20:43;;;;;;;14.82;7.88;;;;;;;4.37;80.82;101595.16;10413030;28;20060;-69
2022/01/08 07:25:44;;;;;;;11.07;7.97;;;;;;;4.44;81.72;101600.88;10430728;28;20098;-69
2022/01/08 07:30:45;;;;;;;12.70;7.78;;;;;;;4.60;81.38;101608.63;10449485;28;20091;-70
2022/01/08 07:35:46;;;;;;;15.07;9.00;;;;;;;4.47;81.70;101612.03;10425832;28;20060;-70
2022/01/08 07:40:51;;;;;;;14.90;7.88;;;;;;;3.89;81.54;101561.31;10426352;28;20038;-71
2022/01/08 07:45:51;;;;;;;9.45;6.28;;;;;;;3.37;81.04;101471.69;10420386;28;20509;-69
2022/01/08 07:50:53;;;;;;;9.60;6.43;;;;;;;3.16;80.65;101452.84;10419119;28;20065;-69
2022/01/08 07:55:54;;;;;;;9.98;6.07;;;;;;;4.05;80.51;101613.78;10425610;28;20037;-69
2022/01/08 08:00:55;;;;;;;8.20;5.13;;;;;;;3.29;81.17;101490.56;10422609;28;20535;-70
2022/01/08 08:05:55;;;;;;;16.45;8.40;;;;;;;3.86;81.85;101615.88;10441600;28;20076;-70
2022/01/08 08:10:56;;;;;;;10.32;6.43;;;;;;;3.83;82.23;101590.59;10453532;28;20473;-69
2022/01/08 08:15:57;;;;;;;11.07;6.22;;;;;;;3.85;81.81;101578.19;10453700;28;20045;-69
2022/01/08 08:20:58;;;;;;;13.88;7.75;;;;;;;3.78;81.82;101584.78;10453673;28;20055;-73
2022/01/08 08:25:59;;;;;;;10.43;5.90;;;;;;;2.76;82.08;101405.38;10414695;28;20056;-70
2022/01/08 08:31:00;;;;;;;11.90;7.22;;;;;;;3.35;81.76;101505.94;10431202;28;20056;-70
2022/01/08 08:36:01;;;;;;;13.30;6.90;;;;;;;3.59;82.27;101548.28;10443219;28;20045;-69
2022/01/08 08:41:02;;;;;;;15.00;7.70;;;;;;;3.39;82.42;101519.75;10460284;28;20045;-69
2022/01/08 08:46:03;;;;;;;12.32;7.72;;;;;;;3.67;82.19;101561.78;10461007;28;20041;-69
2022/01/08 08:51:04;;;;;;;7.80;4.47;;;;;;;2.87;82.02;101408.22;10455661;28;20067;-69
2022/01/08 08:56:05;;;;;;;12.70;7.72;;;;;;;3.49;82.61;101512.97;10457793;28;20039;-69
2022/01/08 09:01:06;;;;;;;16.15;9.48;;;;;;;3.55;83.01;101520.47;10447753;28;20041;-69
2022/01/08 09:06:07;;;;;;;17.08;7.50;;;;;;;3.81;82.80;101533.81;10437238;28;20045;-69
2022/01/08 09:11:08;;;;;;;10.43;7.32;;;;;;;3.60;82.57;101523.69;10417456;28;20052;-69
2022/01/08 09:16:09;;;;;;;11.70;6.32;;;;;;;3.76;81.95;101528.81;10417517;28;20140;-70
2022/01/08 09:21:11;;;;;;;11.07;8.00;;;;;;;3.81;81.67;101536.44;10417032;28;20521;-69
2022/01/08 09:26:12;;;;;;;17.10;7.15;;;;;;;3.06;81.39;101410.56;10417660;28;20049;-70
2022/01/08 09:31:14;;;;;;;10.15;6.07;;;;;;;3.76;80.66;101534.09;10421469;28;20076;-67
2022/01/08 09:36:14;;;;;;;9.55;6.00;;;;;;;3.67;80.99;101524.97;10428511;28;20194;-69
2022/01/08 09:41:16;;;;;;;10.50;6.25;;;;;;;3.65;80.75;101526.88;10421861;28;20080;-69
2022/01/08 09:46:19;;;;;;;7.55;4.82;;;;;;;3.46;80.82;101509.69;10448383;28;20037;-71
2022/01/08 09:51:20;;;;;;;9.07;5.32;;;;;;;2.40;81.51;101340.22;10443977;28;20115;-70
2022/01/08 09:56:26;;;;;;;11.43;5.70;;;;;;;3.60;81.25;101521.06;10415949;28;20047;-68
2022/01/08 10:01:32;;;;;;;6.45;4.20;;;;;;;2.81;79.02;101407.72;10427486;28;20520;-70
2022/01/08 10:06:36;;;;;;;6.25;4.22;;;;;;;3.39;78.75;101503.97;10444295;28;20044;-68
2022/01/08 10:11:37;;;;;;;7.05;3.33;;;;;;;2.46;77.29;101361.66;10448843;28;20048;-68
2022/01/08 10:22:15;;;;;;;13.18;3.83;;;;;;;3.13;76.87;101482.75;10447469;28;20043;-69
2022/01/08 10:27:15;;;;;;;4.75;2.70;;;;;;;3.12;75.40;101501.22;10451492;28;20072;-68
2022/01/08 10:32:26;;;;;;;6.45;3.58;;;;;;;3.12;74.87;101495.97;10455359;28;21948;-68
2022/01/08 10:37:26;;;;;;;5.43;3.20;;;;;;;2.42;75.29;101377.66;10448867;28;20114;-69
2022/01/08 10:42:37;;;;;;;5.60;2.78;;;;;;;3.25;74.54;101493.47;10448739;28;20074;-69
2022/01/08 10:47:38;;;;;;;5.50;2.97;;;;;;;3.26;75.36;101508.25;10445955;28;20048;-69
2022/01/08 10:52:46;;;;;;;5.63;3.13;;;;;;;3.24;75.53;101512.78;10453780;28;20068;-68
2022/01/08 10:57:48;;;;;;;7.50;4.60;;;;;;;3.18;76.72;101509.59;10449471;28;20408;-69
2022/01/08 11:02:49;;;;;;;4.65;2.30;;;;;;;2.23;75.62;101339.41;10434242;28;20107;-69
2022/01/08 11:07:51;;;;;;;4.28;2.38;;;;;;;2.48;74.87;101412.25;10452942;28;20052;-69
2022/01/08 11:12:54;;;;;;;6.18;2.92;;;;;;;2.21;74.54;101361.41;10449077;28;20140;-68
2022/01/08 11:17:57;;;;;;;4.20;2.33;;;;;;;2.88;73.39;101508.78;10444453;28;20048;-68
2022/01/08 11:23:01;;;;;;;4.50;2.50;;;;;;;2.24;73.74;101388.31;10433980;28;20052;-68
2022/01/08 11:28:13;;;;;;;7.43;2.53;;;;;;;3.10;72.73;101526.72;10426583;28;20049;-68
2022/01/08 11:33:20;;;;;;;4.15;2.38;;;;;;;1.91;70.61;101391.06;10412887;28;20046;-68
2022/01/08 11:38:25;;;;;;;10.38;5.68;;;;;;;2.84;72.10;101529.13;10416751;28;20107;-68
2022/01/08 11:43:28;;;;;;;10.85;6.13;;;;;;;2.85;72.66;101530.78;10424944;28;20053;-69
2022/01/08 11:48:34;;;;;;;8.77;4.55;;;;;;;2.00;73.71;101389.69;10413783;28;20629;-68
2022/01/08 11:53:49;;;;;;;6.80;2.85;;;;;;;2.21;74.22;101442.66;10427879;28;20119;-70
2022/01/08 11:59:08;;;;;;;6.90;2.88;;;;;;;2.83;74.74;101542.31;10407780;28;20489;-66
2022/01/08 12:04:31;;;;;;;4.43;2.72;;;;;;;1.94;74.68;101385.63;10411164;28;20046;-72
2022/01/08 12:09:35;;;;;;;9.00;2.45;;;;;;;2.08;73.70;101412.84;10433451;28;20047;-73
2022/01/08 12:14:36;;;;;;;6.55;2.08;;;;;;;2.67;73.98;101535.31;10461402;28;20048;-73
2022/01/08 12:19:43;;;;;;;6.95;2.28;;;;;;;2.32;73.90;101497.97;10457024;28;20033;-72
2022/01/08 12:24:45;;;;;;;5.97;2.75;;;;;;;2.58;74.69;101533.22;10440118;28;20594;-70
2022/01/08 12:29:46;;;;;;;7.43;2.90;;;;;;;2.18;74.85;101462.03;10438611;28;20543;-70
2022/01/08 12:34:51;;;;;;;8.25;4.07;;;;;;;2.50;75.40;101536.28;10426094;28;20057;-72
2022/01/08 12:39:54;;;;;;;7.30;3.55;;;;;;;2.36;76.16;101515.22;10459190;28;20087;-72
2022/01/08 12:45:06;;;;;;;9.88;3.53;;;;;;;2.55;76.86;101551.75;10461051;28;20044;-71
2022/01/08 12:50:42;;;;;;;6.03;2.92;;;;;;;1.86;77.84;101450.75;10461101;28;20044;-71
2022/01/08 12:55:55;;;;;;;6.10;3.33;;;;;;;2.52;79.15;101559.81;10460218;28;20060;-71
2022/01/08 13:01:06;;;;;;;6.22;3.63;;;;;;;1.83;79.30;101471.88;10460633;28;20416;-72
2022/01/08 13:06:10;;;;;;;8.18;5.15;;;;;;;2.42;79.69;101569.09;10460054;28;20123;-73
2022/01/08 13:11:14;;;;;;;5.03;2.77;;;;;;;1.57;80.17;101452.34;10458124;28;20049;-72
2022/01/08 13:16:29;;;;;;;;;;;;;;;2.36;79.98;101585.19;10453286;28;20037;-71
2022/01/08 13:21:34;;;;;;;9.05;4.28;;;;;;;2.03;81.11;101552.00;10458772;28;19966;-72
2022/01/08 13:26:38;;;;;;;13.23;6.18;;;;;;;0.56;80.83;101300.69;10458535;28;20041;-72
2022/01/08 13:31:47;;;;;;;9.63;5.22;;;;;;;2.24;80.75;101582.31;10459485;28;20134;-72
2022/01/08 13:37:05;;;;;;;4.68;2.47;;;;;;;2.02;81.10;101545.94;10458675;28;20044;-72
2022/01/08 13:42:13;;;;;;;5.93;3.42;;;;;;;1.37;81.22;101438.53;10458907;28;20033;-72
2022/01/08 13:48:01;;;;;;;5.55;3.22;;;;;;;2.21;82.23;101587.69;10458508;28;20567;-72
2022/01/08 13:53:05;;;;;;;6.95;3.88;;;;;;;2.16;82.47;101602.03;10444628;28;20095;-73
2022/01/08 13:58:10;;;;;;;5.93;3.35;;;;;;;2.08;82.94;101580.59;10424483;28;20102;-77
2022/01/08 14:03:26;;;;;;;6.00;3.75;;;;;;;0.95;83.20;101391.09;10438524;28;20044;-73
2022/01/08 14:08:28;;;;;;;7.82;3.22;;;;;;;2.03;83.82;101571.22;10433439;28;20081;-75
2022/01/08 14:13:47;;;;;;;6.95;4.10;;;;;;;1.86;84.00;101549.47;10428313;28;20033;-74
2022/01/08 14:18:49;;;;;;;6.35;3.20;;;;;;;2.06;84.28;101578.06;10431720;28;20045;-73
2022/01/08 14:23:50;;;;;;;6.35;3.67;;;;;;;1.20;84.37;101435.13;10428174;28;20834;-73
2022/01/08 14:29:12;;;;;;;6.40;3.72;;;;;;;2.21;84.42;101602.59;10430226;28;20182;-74
2022/01/08 14:34:21;;;;;;;6.78;3.40;;;;;;;2.13;83.88;101605.66;10429915;28;20036;-73
2022/01/08 14:39:48;;;;;;;5.47;3.17;;;;;;;2.15;84.64;101601.16;10431266;28;20411;-75
2022/01/08 14:44:57;;;;;;;4.88;3.20;;;;;;;1.90;85.02;101571.97;10427792;28;20483;-73
2022/01/08 14:49:58;;;;;;;6.15;3.70;;;;;;;1.10;85.07;101437.38;10429649;28;20048;-72
2022/01/08 14:54:59;;;;;;;6.82;3.65;;;;;;;1.81;85.24;101568.91;10429631;28;20532;-74
2022/01/08 15:00:01;;;;;;;6.80;3.85;;;;;;;0.83;85.23;101401.25;10429384;28;20045;-75
2022/01/08 15:05:03;;;;;;;5.82;3.22;;;;;;;0.71;85.22;101380.97;10431056;28;20148;-75
2022/01/08 15:10:07;;;;;;;5.43;2.13;;;;;;;0.99;84.39;101429.22;10453426;28;20045;-76
2022/01/08 15:15:09;;;;;;;6.35;2.95;;;;;;;1.98;82.87;101604.69;10454433;28;20123;-75
2022/01/08 15:20:11;;;;;;;5.70;2.97;;;;;;;1.18;81.79;101469.22;10454785;28;20056;-74
2022/01/08 15:30:22;;;;;;;4.80;2.17;;;;;;;1.66;80.99;101563.63;11565320;23;20098;-71
2022/01/08 15:35:24;;;;;;;4.03;2.13;;;;;;;0.86;80.36;101435.09;10332613;28;20097;-77
2022/01/08 15:40:25;;;;;;;4.45;1.95;;;;;;;1.67;79.61;101589.72;10330477;28;20054;-78
2022/01/08 15:45:26;;;;;;;3.70;1.65;;;;;;;1.45;79.21;101558.59;10339007;28;20050;-76
2022/01/08 15:50:28;;;;;;;4.30;2.58;;;;;;;1.67;79.75;101602.81;10339854;28;20050;-80
2022/01/08 15:55:29;;;;;;;5.75;2.40;;;;;;;1.05;79.64;101478.66;10339459;28;20042;-78
2022/01/08 16:00:30;;;;;;;7.05;3.10;;;;;;;-0.08;79.33;101310.06;10338347;28;20042;-77
2022/01/08 16:05:33;;;;;;;9.07;3.13;;;;;;;1.26;80.17;101529.06;10333426;28;20064;-74
2022/01/08 16:10:34;;;;;;;3.85;2.03;;;;;;;1.52;79.50;101575.66;10334246;28;20045;-78
2022/01/08 16:15:35;;;;;;;3.05;1.70;;;;;;;1.32;79.59;101526.97;10330291;28;20050;-75
2022/01/08 16:20:35;;;;;;;4.05;1.92;;;;;;;1.73;79.79;101593.81;10341054;28;20093;-76
2022/01/08 16:25:39;;;;;;;5.35;2.75;;;;;;;1.60;79.89;101576.09;10339913;28;20043;-77
2022/01/08 16:30:41;;;;;;;3.53;1.55;;;;;;;0.44;79.82;101386.69;10319217;28;20465;-77
2022/01/08 16:35:45;;;;;;;4.55;2.17;;;;;;;1.35;80.13;101544.28;10319235;28;20070;-77
2022/01/08 16:40:47;;;;;;;6.78;2.42;;;;;;;1.67;79.83;101574.00;10318570;28;20046;-77
2022/01/08 16:45:49;;;;;;;4.45;2.03;;;;;;;1.53;80.44;101542.47;10320045;28;20038;-77
2022/01/08 16:50:50;;;;;;;5.85;2.58;;;;;;;1.66;80.92;101569.72;10317381;28;20522;-76
2022/01/08 16:55:51;;;;;;;6.35;3.17;;;;;;;1.68;80.56;101567.03;10316322;28;20034;-77
2022/01/08 17:00:52;;;;;;;6.72;3.03;;;;;;;1.26;81.19;101524.66;10312660;28;20035;-76
2022/01/08 17:05:53;;;;;;;6.05;3.08;;;;;;;1.05;81.75;101471.66;10313614;28;20034;-77
2022/01/08 17:10:56;;;;;;;6.07;2.38;;;;;;;1.53;81.90;101553.78;10312913;28;20042;-77
2022/01/08 17:15:56;;;;;;;6.78;3.28;;;;;;;1.59;81.87;101540.38;10312379;28;20589;-77
2022/01/08 17:20:59;;;;;;;8.90;3.05;;;;;;;1.57;82.12;101529.13;10312332;28;20150;-77
2022/01/08 17:26:00;;;;;;;4.53;2.30;;;;;;;1.59;82.29;101521.19;10305782;28;20091;-79
2022/01/08 17:31:02;;;;;;;5.07;2.50;;;;;;;0.12;82.90;101289.00;10304855;28;20521;-78
2022/01/08 17:36:03;;;;;;;4.20;1.98;;;;;;;0.76;83.22;101388.59;10302885;28;20058;-76
2022/01/08 17:41:04;;;;;;;5.10;2.40;;;;;;;0.70;83.09;101384.50;10299041;28;20061;-76
2022/01/08 17:46:05;;;;;;;3.45;1.75;;;;;;;1.34;83.19;101477.13;10302506;28;20522;-76
2022/01/08 17:51:06;;;;;;;3.88;2.35;;;;;;;1.41;82.88;101495.97;10297346;28;20049;-76
2022/01/08 17:56:07;;;;;;;5.00;2.28;;;;;;;0.66;82.44;101367.31;10302962;28;20042;-77
2022/01/08 18:01:08;;;;;;;3.55;1.92;;;;;;;1.50;81.92;101521.69;10308852;28;20521;-77
2022/01/08 18:06:09;;;;;;;4.55;2.03;;;;;;;1.49;80.93;101509.50;10298051;28;20049;-77
2022/01/08 18:11:10;;;;;;;5.78;1.85;;;;;;;0.93;80.64;101416.47;10306895;28;20112;-76
2022/01/08 18:16:10;;;;;;;3.22;1.63;;;;;;;0.72;80.30;101367.00;10309919;28;20121;-77
2022/01/08 18:21:11;;;;;;;3.30;1.58;;;;;;;1.41;80.10;101490.72;10306603;28;20497;-77
2022/01/08 18:26:12;;;;;;;5.30;2.00;;;;;;;1.34;80.44;101464.03;10282810;28;20430;-73
2022/01/08 18:31:13;;;;;;;9.60;2.25;;;;;;;1.39;80.17;101466.41;10291671;28;20069;-74
2022/01/08 18:36:15;;;;;;;4.10;2.00;;;;;;;1.34;80.51;101472.72;10297319;28;20314;-75
2022/01/08 18:41:16;;;;;;;4.20;1.90;;;;;;;0.70;80.66;101353.13;10328257;28;20057;-78
2022/01/08 18:46:17;;;;;;;4.00;2.00;;;;;;;1.29;81.29;101450.38;10328203;28;20053;-77
2022/01/08 18:51:17;;;;;;;4.13;2.20;;;;;;;0.46;81.95;101305.56;10329123;28;20085;-78
2022/01/08 18:56:18;;;;;;;3.10;1.55;;;;;;;0.58;82.72;101317.16;10315010;28;20069;-77
2022/01/08 19:01:19;;;;;;;3.60;1.50;;;;;;;1.43;82.87;101457.47;10320727;28;20064;-79
2022/01/08 19:06:20;;;;;;;4.65;1.85;;;;;;;1.31;83.44;101435.41;10333276;28;20498;-77
2022/01/08 19:11:22;;;;;;;4.50;2.10;;;;;;;1.08;83.83;101407.84;10333214;28;20097;-78
2022/01/08 19:16:22;;;;;;;4.03;2.50;;;;;;;1.35;84.48;101456.13;10332623;28;20056;-77
2022/01/08 19:21:23;;;;;;;4.70;1.67;;;;;;;0.73;84.86;101339.91;10331314;28;20041;-78
2022/01/08 19:26:24;;;;;;;4.28;2.50;;;;;;;1.09;85.22;101397.28;10331813;28;20046;-78
2022/01/08 19:31:26;;;;;;;5.60;2.92;;;;;;;1.15;85.65;101403.97;10331328;28;20141;-78
2022/01/08 19:36:27;;;;;;;5.97;2.95;;;;;;;1.34;86.53;101433.44;10331256;28;20054;-78
2022/01/08 19:41:28;;;;;;;4.90;2.58;;;;;;;1.35;86.14;101437.78;10332022;28;20042;-77
2022/01/08 19:46:29;;;;;;;5.30;2.58;;;;;;;1.16;86.49;101387.31;10329244;28;20046;-78
2022/01/08 19:51:31;;;;;;;4.95;3.05;;;;;;;1.16;86.44;101391.72;10332163;28;20050;-77
2022/01/08 19:56:32;;;;;;;6.72;3.33;;;;;;;0.91;86.95;101336.31;10330433;28;20042;-78
2022/01/08 20:01:33;;;;;;;8.32;3.60;;;;;;;1.29;88.03;101409.31;10331580;28;20038;-77
2022/01/08 20:06:34;;;;;;;5.28;3.17;;;;;;;1.35;88.25;101395.91;10332476;28;20482;-78
2022/01/08 20:11:34;;;;;;;6.78;3.55;;;;;;;0.95;88.30;101350.06;10331811;28;20095;-78
2022/01/08 20:16:35;;;;;;;6.88;3.83;;;;;;;1.09;88.94;101380.75;10330979;28;20046;-78
2022/01/08 20:21:36;;;;;;;5.93;3.28;;;;;;;1.32;89.17;101393.44;10330559;28;20428;-78
2022/01/08 20:26:37;;;;;;;6.25;3.85;;;;;;;0.61;89.22;101298.72;10331414;28;20129;-78
2022/01/08 20:31:38;;;;;;;5.97;3.67;;;;;;;1.01;89.57;101333.19;10334394;28;20139;-77
2022/01/08 20:36:39;;;;;;;9.68;4.85;;;;;;;1.10;89.94;101351.03;10336864;28;20494;-77
2022/01/08 20:41:40;;;;;;;9.15;4.18;;;;;;;1.06;90.04;101329.41;10338081;28;20034;-78
2022/01/08 20:46:42;;;;;;;6.22;4.25;;;;;;;1.08;90.64;101358.97;10335780;28;20035;-78
2022/01/08 20:51:43;;;;;;;8.35;4.57;;;;;;;1.32;90.27;101374.28;10337918;28;20141;-77
2022/01/08 20:56:44;;;;;;;8.43;5.25;;;;;;;0.49;90.74;101247.91;10338695;28;20184;-77
2022/01/08 21:01:44;;;;;;;8.48;4.78;;;;;;;1.11;91.20;101340.47;10336898;28;20457;-77
2022/01/08 21:06:45;;;;;;;8.10;4.95;;;;;;;1.27;91.04;101374.50;10337830;28;20091;-77
2022/01/08 21:11:46;;;;;;;7.97;4.20;;;;;;;0.60;90.90;101269.09;10337575;28;20135;-77
2022/01/08 21:16:47;;;;;;;9.10;4.35;;;;;;;1.29;90.64;101366.59;10335798;28;20034;-78
2022/01/08 21:21:48;;;;;;;7.57;4.30;;;;;;;1.25;91.12;101371.13;10337298;28;20089;-77
2022/01/08 21:26:49;;;;;;;7.32;4.13;;;;;;;0.90;90.42;101316.31;10334694;28;20049;-78
2022/01/08 21:31:51;;;;;;;9.02;5.10;;;;;;;1.27;90.09;101385.00;10336586;28;20062;-78
2022/01/08 21:36:52;;;;;;;7.68;4.65;;;;;;;1.28;90.12;101360.50;10335664;28;20097;-78
2022/01/08 21:41:53;;;;;;;5.93;3.70;;;;;;;1.24;89.71;101352.91;10334461;28;20490;-77
2022/01/08 21:46:55;;;;;;;7.35;4.35;;;;;;;1.22;89.92;101350.34;10335790;28;20042;-77
2022/01/08 21:51:58;;;;;;;7.95;4.90;;;;;;;1.10;89.88;101337.94;10335717;28;20038;-78
2022/01/08 21:56:59;;;;;;;8.30;4.38;;;;;;;0.97;89.40;101292.44;10334913;28;20046;-77
2022/01/08 22:02:00;;;;;;;6.88;4.32;;;;;;;1.06;90.14;101318.94;10335635;28;20383;-77
2022/01/08 22:07:01;;;;;;;8.05;4.68;;;;;;;0.84;89.62;101282.63;10334493;28;20046;-78
2022/01/08 22:12:02;;;;;;;7.57;4.03;;;;;;;-0.36;89.90;101078.22;10335376;28;20121;-77
2022/01/08 22:17:04;;;;;;;8.65;4.70;;;;;;;0.40;89.90;101210.03;10333980;28;20042;-77
2022/01/08 22:22:04;;;;;;;7.90;4.50;;;;;;;0.93;90.02;101311.81;10334660;28;20116;-78
2022/01/08 22:27:05;;;;;;;9.80;5.80;;;;;;;1.13;89.89;101329.91;10334475;28;20077;-77
2022/01/08 22:32:06;;;;;;;10.68;6.00;;;;;;;1.14;90.34;101352.56;10333276;28;20528;-77
2022/01/08 22:37:08;;;;;;;6.80;4.47;;;;;;;0.94;90.52;101308.31;10333264;28;20046;-78
2022/01/08 22:42:09;;;;;;;9.43;6.32;;;;;;;0.66;90.47;101257.47;10333141;28;20064;-78
2022/01/08 22:47:10;;;;;;;7.30;4.00;;;;;;;0.63;91.33;101268.94;10334270;28;20052;-77
2022/01/08 22:52:11;;;;;;;9.18;5.93;;;;;;;0.77;92.35;101264.72;10333177;28;20375;-77
2022/01/08 22:57:12;;;;;;;12.77;7.82;;;;;;;0.58;92.39;101259.66;10333132;28;20108;-78
2022/01/08 23:02:13;;;;;;;14.00;8.07;;;;;;;0.93;92.93;101317.94;10333641;28;20053;-78
2022/01/08 23:07:22;;;;;;;13.93;8.35;;;;;;;0.95;93.26;101300.34;10333236;28;20034;-78
2022/01/08 23:12:23;;;;;;;9.35;5.70;;;;;;;1.02;93.68;101309.59;10333139;28;20043;-79
2022/01/08 23:17:23;;;;;;;12.73;7.28;;;;;;;0.54;93.58;101258.09;10331986;28;20046;-77
2022/01/08 23:22:24;;;;;;;14.27;9.18;;;;;;;0.70;94.08;101261.59;10332906;28;20379;-77
2022/01/08 23:27:26;;;;;;;7.00;4.57;;;;;;;0.95;94.03;101304.75;10331939;28;20548;-78
2022/01/08 23:32:26;;;;;;;13.43;8.27;;;;;;;0.86;94.16;101280.75;10332742;28;20068;-77
2022/01/08 23:37:27;;;;;;;12.75;8.85;;;;;;;1.00;94.13;101293.09;10331440;28;20046;-78
2022/01/08 23:42:28;;;;;;;13.52;8.25;;;;;;;0.12;93.80;101141.84;10331486;28;20457;-77